Tiempo atmosférico en la estación meteorológica de Valdezcaray, estación de esquí, La Rioja (1630 m.)



Fecha
DESCASC
Temp. máxima en grados centígrados (hora)
DESCASC
Temp. mínima en grados centígrados (hora)
DESCASC
Temp. media en grados centígrados
DESCASC
Racha de viento máxima en m/sg (hora)
DESCASC
Velocidad máxima media en intervalos de 10 minutos(hora)
DESCASC
Precipitaciones diarias en mm
DESCASC
Precipitaciones de 00:00 a 06:00 en mm
DESCASC
Precipitaciones de 06:00 a 12:00 en mm
DESCASC
Precipitaciones de 12:00 a 18:00 en mm
DESCASC
Precipitaciones de 18:00 a 24:00 en mm
DESCASC
31-05-2020 19.3 (12:00) 10.4 (14:20) 14.8 13.33 (22:40) 9.72 (23:30) 1.4 0 0 1 0.4
30-05-2020 19.8 (17:40) 10.6 (00:10) 15.2 7.22 (23:10) 5 (04:10) 0 0 0 0 0
29-05-2020 19.4 (16:50) 10.9 (23:59) 15.1 9.17 (20:10) 4.72 (20:10) 0 0 0 0 0
28-05-2020 18.4 (18:30) 12.2 (00:00) 15.3 11.67 (03:30) 9.17 (03:20) 0.2 0.2 0 0 0
27-05-2020 18.7 (15:00) 9.3 (00:00) 14 10.56 (19:20) 6.11 (19:20) 3.6 0 0 0 3.6
26-05-2020 15.7 (18:00) 7.3 (00:00) 11.5 8.33 (15:50) 4.72 (07:30) 0.2 0.2 0 0 0
25-05-2020 15.2 (12:20) 8 (00:00) 11.6 6.94 (15:50) 4.72 (01:00) 0 0 0 0 0
24-05-2020 14.9 (16:50) 4.7 (00:00) 9.8 7.22 (02:10) 5.28 (22:00) 0 0 0 0 0
23-05-2020 16.7 (02:40) 5.5 (00:00) 11.1 5.83 (03:30) 3.61 (03:30) 0.8 0 0 0.4 0.4
22-05-2020 21.9 (18:30) 13.4 (00:00) 17.6 7.78 (12:30) 3.89 (07:10) 0 0 0 0 0
21-05-2020 20.2 (19:00) 10.1 (00:00) 15.2 7.5 (04:30) 6.11 (07:10) 0 0 0 0 0
20-05-2020 18.1 (15:30) 9.6 (00:00) 13.9 8.33 (17:30) 5.28 (03:20) 0 0 0 0 0
19-05-2020 15.4 (15:50) 7.3 (00:00) 11.3 10.56 (02:10) 5.56 (02:00) 0 0 0 0 0
18-05-2020 13.7 (16:40) 6.4 (00:00) 10 8.33 (17:00) 5 (05:40) 0 0 0 0 0
17-05-2020 10.5 (17:30) 1.4 (00:00) 5.9 7.5 (00:20) 4.17 (09:30) 0 0 0 0 0
16-05-2020 3.8 (16:40) 0.6 (00:00) 2.2 8.33 (22:10) 3.89 (19:00) 4.6 0.8 3 0.8 0
15-05-2020 3.9 (12:00) 1 (00:00) 2.5 6.94 (12:20) 3.33 (09:00) 10.4 0.6 3.6 4 2.2
14-05-2020 7.4 (03:10) 3.3 (00:00) 5.4 7.5 (06:40) 5.83 (06:40) 9.2 0 0 4.6 4.6
13-05-2020 8.9 (16:40) 3.8 (00:00) 6.3 6.94 (12:40) 5.28 (23:10) 12.2 3.6 2 0 6.6
12-05-2020 9.7 (13:10) 4.1 (00:00) 6.9 10 (07:30) 7.22 (07:30) 9 0 0 0.6 8.4
11-05-2020 11.2 (17:20) 4.5 (00:00) 7.8 15.56 (14:50) 8.89 (14:50) 3.6 0.2 0 0 3.4
10-05-2020 9.7 (00:00) 4.8 (00:00) 7.3 10.83 (06:40) 7.22 (07:00) 9 3.8 0.8 1.8 2.6
09-05-2020 14.9 (18:20) 9.7 (00:00) 12.3 11.67 (17:30) 7.22 (04:30) 6.6 3 0 0 3.6
08-05-2020 17.2 (15:20) 8.5 (00:00) 12.9 26.94 (10:30) 11.94 (10:30) 5.4 0 1.4 0 4
07-05-2020 19 (17:00) 10.4 (00:00) 14.7 15.83 (09:10) 11.94 (09:10) 0 0 0 0 0
06-05-2020 16.1 (18:30) 6.4 (00:00) 11.3 6.94 (18:30) 3.89 (23:59) 0 0 0 0 0
05-05-2020 16.2 (17:00) 8 (00:00) 12.1 14.17 (05:40) 5.83 (18:40) 0 0 0 0 0
04-05-2020 21.6 (16:20) 11.6 (00:00) 16.6 20 (17:10) 10 (02:50) 1 0 0 0 1
03-05-2020 19.7 (17:10) 9.5 (00:00) 14.6 11.94 (23:40) 6.67 (23:30) 0 0 0 0 0

Gráficas

Temp. máximas Temp. mínimas Temp. medias Precipitaciones Rachas de viento máximas Velocidades máximas media en intervalos de 10 minutos

Datos horarios

Fecha y hora oficial Temperatura (ºC) Velocidad del viento (km/h) Dirección del viento Racha (km/h) Dirección de racha Precipitación (mm) Presión (hPa) Tendencia (hPa) Humedad (%)
2020-06-01 23:00:00 13.8 13 Sudeste 17 Este 0 -- -- 82
2020-06-01 22:00:00 13.9 10 Este 14 Este 0 -- -- 76
2020-06-01 21:00:00 16.7 5 Este 12 Noroeste 0 -- -- 68
2020-06-01 20:00:00 17.9 8 Noroeste 15 Noroeste 0 -- -- 67
2020-06-01 19:00:00 17.8 4 Noroeste 13 Sudeste 0 -- -- 64
2020-06-01 18:00:00 16.9 5 Noroeste 13 Sudeste 0 -- -- 68
2020-06-01 17:00:00 16.4 7 Sudeste 17 Norte 0 -- -- 69
2020-06-01 16:00:00 16.5 9 Noroeste 21 Sudeste 0 -- -- 72
2020-06-01 15:00:00 16.7 9 Noroeste 21 Noroeste 0 -- -- 67
2020-06-01 14:00:00 16.1 11 Noroeste 20 Noroeste 0 -- -- 72
2020-06-01 13:00:00 15.8 9 Noroeste 18 Noroeste 0 -- -- 63
2020-06-01 12:00:00 15 9 Noroeste 16 Noroeste 0 -- -- 65
2020-06-01 11:00:00 13.9 6 Noroeste 17 Noroeste 0 -- -- 67
2020-06-01 10:00:00 13.6 9 Norte 16 Norte 0 -- -- 66
2020-06-01 09:00:00 12.4 0 Calma 13 Oeste 0 -- -- 70
2020-06-01 08:00:00 11.8 6 Noroeste 15 Sur 0 -- -- 69
2020-06-01 07:00:00 12.4 13 Sudeste 27 Sur 0 -- -- 65
2020-06-01 06:00:00 11.2 7 Sudoeste 25 Sudoeste 0 -- -- 72
2020-06-01 05:00:00 11.7 17 Sur 27 Sur 0 -- -- 69
2020-06-01 04:00:00 12 21 Sur 31 Sur 0 -- -- 67
2020-06-01 03:00:00 12 15 Sur 42 Sur 0 -- -- 69
2020-06-01 02:00:00 11.6 20 Sur 41 Sur 0 -- -- 82
2020-06-01 01:00:00 12.6 22 Sur 37 Sudoeste 0 -- -- 74
2020-06-01 00:00:00 12.6 23 Sur 43 Sudeste 0 -- -- 74
2020-05-31 23:00:00 14.2 14 Sur 48 Sudeste 0 -- -- 65
2020-05-31 22:00:00 13.7 4 Este 12 Sudeste 0 -- -- 60
2020-05-31 21:00:00 14.4 8 Sudeste 39 Sudeste 0 -- -- 59
2020-05-31 20:00:00 13.9 26 Sudeste 42 Sudeste 0.4 -- -- 65
2020-05-31 19:00:00 15.3 16 Sudeste 28 Sur 0 -- -- 65
2020-05-31 18:00:00 15.8 10 Este 27 Este 0 -- -- 70
2020-05-31 17:00:00 15.8 4 Sudoeste 14 Oeste 0 -- -- 70
2020-05-31 16:00:00 14.8 3 Sur 6 Sur 0 -- -- 74
2020-05-31 15:00:00 12.8 4 Nordeste 30 Norte 1 -- -- 76
2020-05-31 14:00:00 11.7 22 Noroeste 46 Noroeste 0 -- -- 97
2020-05-31 13:00:00 16.9 4 Noroeste 23 Norte 0 -- -- 74
2020-05-31 12:00:00 19.3 10 Noroeste 21 Sudeste 0 -- -- 56
2020-05-31 11:00:00 18.2 6 Sudeste 18 Oeste 0 -- -- 53
2020-05-31 10:00:00 17.7 3 Noroeste 8 Norte 0 -- -- 58
2020-05-31 09:00:00 16.7 2 Nordeste 10 Este 0 -- -- 61
2020-05-31 08:00:00 15.8 4 Oeste 19 Norte 0 -- -- 59
2020-05-31 07:00:00 14.4 7 Sudeste 18 Sudeste 0 -- -- 62
2020-05-31 06:00:00 14.2 5 Nordeste 14 Sur 0 -- -- 61
2020-05-31 05:00:00 16.4 8 Sur 16 Sur 0 -- -- 53
2020-05-31 04:00:00 15.6 11 Sudoeste 19 Sudoeste 0 -- -- 58
2020-05-31 03:00:00 15.5 8 Sudoeste 18 Oeste 0 -- -- 58
2020-05-31 02:00:00 15.3 5 Sudoeste 24 Oeste 0 -- -- 59
2020-05-31 01:00:00 16.2 15 Sur 31 Sur 0 -- -- 55
2020-05-31 00:00:00 16.1 7 Sur 26 Sudeste 0 -- -- 43
2020-05-30 23:00:00 14.8 12 Este 19 Este 0 -- -- 40
2020-05-30 22:00:00 15.4 10 Este 14 Este 0 -- -- 35
2020-05-30 21:00:00 18 2 Sudoeste 8 Oeste 0 -- -- 47
2020-05-30 20:00:00 18.7 7 Noroeste 16 Noroeste 0 -- -- 53
2020-05-30 19:00:00 19.3 10 Noroeste 23 Noroeste 0 -- -- 53
2020-05-30 18:00:00 19.8 9 Noroeste 23 Noroeste 0 -- -- 56
2020-05-30 17:00:00 19.5 12 Noroeste 21 Noroeste 0 -- -- 63
2020-05-30 16:00:00 19.1 10 Noroeste 17 Noroeste 0 -- -- 66
2020-05-30 15:00:00 18.2 9 Noroeste 18 Noroeste 0 -- -- 70
2020-05-30 14:00:00 17.9 10 Noroeste 17 Noroeste 0 -- -- 72
2020-05-30 13:00:00 17.6 8 Noroeste 14 Noroeste 0 -- -- 59
2020-05-30 12:00:00 16.5 5 Noroeste 10 Noroeste 0 -- -- 54
2020-05-30 11:00:00 16 5 Noroeste 9 Noroeste -- -- -- 52
2020-05-30 10:00:00 16.4 2 Norte 8 Este 0 -- -- 46
2020-05-30 09:00:00 13.8 5 Este 12 Sudeste 0 -- -- 60
2020-05-30 08:00:00 13.9 3 Este 14 Sur 0 -- -- 59
2020-05-30 07:00:00 12.8 8 Sur 12 Sur 0 -- -- 64
2020-05-30 06:00:00 13.2 3 Sur 18 Sur 0 -- -- 57
2020-05-30 05:00:00 13 14 Sur 25 Este 0 -- -- 31
2020-05-30 04:00:00 12.7 16 Este 20 Este 0 -- -- 31
2020-05-30 03:00:00 11.9 16 Este 20 Sudeste 0 -- -- 33
2020-05-30 02:00:00 13.2 14 Este 17 Este 0 -- -- 27
2020-05-30 01:00:00 12 13 Sudeste 21 Este 0 -- -- 31
2020-05-30 00:00:00 10.9 10 Nordeste 17 Este -- -- -- 37
2020-05-29 23:00:00 11.8 5 Sudeste 8 Este 0 -- -- 80
2020-05-29 22:00:00 13.3 4 Sudeste 15 Noroeste 0 -- -- 76
2020-05-29 21:00:00 16.2 10 Noroeste 33 Noroeste 0 -- -- 65
2020-05-29 20:00:00 18 12 Noroeste 30 Noroeste 0 -- -- 59
2020-05-29 19:00:00 19.1 11 Noroeste 28 Oeste 0 -- -- 38
2020-05-29 18:00:00 19.1 13 Noroeste 27 Noroeste 0 -- -- 37
2020-05-29 17:00:00 18.9 15 Noroeste 27 Oeste 0 -- -- 45
2020-05-29 16:00:00 18.9 15 Noroeste 27 Noroeste 0 -- -- 48
2020-05-29 15:00:00 18.6 13 Noroeste 28 Noroeste 0 -- -- 47
2020-05-29 14:00:00 18.1 12 Noroeste 22 Noroeste 0 -- -- 50
2020-05-29 13:00:00 17.5 9 Noroeste 18 Noroeste 0 -- -- 49
2020-05-29 12:00:00 16.9 8 Noroeste 14 Noroeste 0 -- -- 48
2020-05-29 11:00:00 16.3 5 Noroeste 10 Noroeste 0 -- -- 54
2020-05-29 10:00:00 16.2 4 Noroeste 8 Este 0 -- -- 52
2020-05-29 09:00:00 13.5 6 Este 11 Nordeste 0 -- -- 58
2020-05-29 08:00:00 12.5 9 Este 14 Sudeste 0 -- -- 64
2020-05-29 07:00:00 13.1 13 Sudeste 18 Sudeste 0 -- -- 60
2020-05-29 06:00:00 12.5 10 Sudeste 14 Sudeste 0 -- -- 63
2020-05-29 05:00:00 12.7 12 Sudeste 16 Sudeste 0 -- -- 57
2020-05-29 04:00:00 12.6 11 Sur 16 Sur 0 -- -- 56
2020-05-29 03:00:00 13 13 Sur 18 Sur 0 -- -- 56
2020-05-29 02:00:00 13.6 15 Sur 19 Sur 0 -- -- 58
2020-05-29 01:00:00 13.8 12 Sur 15 Sudeste 0 -- -- 65
2020-05-29 00:00:00 14 14 Sudeste 19 Sudeste 0 -- -- 66
2020-05-28 23:00:00 14.1 11 Sudeste 21 Este 0 -- -- 64
2020-05-28 22:00:00 13.6 17 Este 22 Este 0 -- -- 52
2020-05-28 21:00:00 16.1 12 Este 21 Este 0 -- -- 48
2020-05-28 20:00:00 17.2 12 Este 21 Este 0 -- -- 51
2020-05-28 19:00:00 17.8 13 Este 21 Este 0 -- -- 55
2020-05-28 18:00:00 18.1 12 Este 23 Sudeste 0 -- -- 57
2020-05-28 17:00:00 17.3 11 Sudeste 21 Sudeste 0 -- -- 60
2020-05-28 16:00:00 16.7 11 Sudeste 23 Sudeste 0 -- -- 64
2020-05-28 15:00:00 17.1 8 Noroeste 19 Noroeste 0 -- -- 64
2020-05-28 14:00:00 16.7 8 Noroeste 16 Noroeste 0 -- -- 66
2020-05-28 13:00:00 16.8 9 Noroeste 13 Noroeste 0 -- -- 57
2020-05-28 12:00:00 16.1 7 Noroeste 10 Noroeste 0 -- -- 57
2020-05-28 11:00:00 16 4 Noroeste 7 Norte 0 -- -- 55
2020-05-28 10:00:00 16 3 Norte 7 Este 0 -- -- 44
2020-05-28 09:00:00 13.2 4 Sudeste 14 Sudeste 0 -- -- 53
2020-05-28 08:00:00 12.7 15 Sudeste 27 Sudeste 0 -- -- 47
2020-05-28 07:00:00 12.2 24 Sudeste 36 Sur 0 -- -- 50
2020-05-28 06:00:00 12.4 29 Sudeste 34 Sur 0 -- -- 61
2020-05-28 05:00:00 12.7 28 Sur 34 Sudeste 0 -- -- 66
2020-05-28 04:00:00 12.8 31 Sudeste 42 Sur 0.2 -- -- 68
2020-05-28 03:00:00 13.3 27 Sudeste 31 Sudeste 0 -- -- 66
2020-05-28 02:00:00 13 24 Sudeste 29 Sudeste 0 -- -- 66
2020-05-28 01:00:00 12.9 21 Sudeste 25 Sudeste 0 -- -- 73
2020-05-28 00:00:00 12.7 21 Sudeste 24 Sudeste 0 -- -- 71
2020-05-27 23:00:00 13 20 Sudeste 24 Sudeste 0 -- -- 76
2020-05-27 22:00:00 14.1 19 Sudeste 21 Sudeste 0 -- -- 78
2020-05-27 21:00:00 15.2 14 Sur 27 Sudeste 0 -- -- 79
2020-05-27 20:00:00 15.9 10 Sur 38 Sudeste 3.6 -- -- 78
2020-05-27 19:00:00 18.4 6 Noroeste 31 Sudeste 0 -- -- 68
2020-05-27 18:00:00 18.1 9 Sudeste 26 Sudeste 0 -- -- 68
2020-05-27 17:00:00 17.9 10 Sudeste 22 Este 0 -- -- 72
2020-05-27 16:00:00 17.4 10 Sudeste 22 Sudeste 0 -- -- 74
2020-05-27 15:00:00 18.7 6 Este 18 Oeste 0 -- -- 68
2020-05-27 14:00:00 16.1 6 Noroeste 14 Noroeste 0 -- -- 82
2020-05-27 13:00:00 16.1 7 Noroeste 13 Noroeste 0 -- -- 76
2020-05-27 12:00:00 15.4 7 Noroeste 12 Noroeste 0 -- -- 71
2020-05-27 11:00:00 15.6 4 Noroeste 9 Oeste 0 -- -- 67
2020-05-27 10:00:00 16.3 2 Norte 12 Este 0 -- -- 62
2020-05-27 09:00:00 13.5 5 Este 17 Sudeste 0 -- -- 70
2020-05-27 08:00:00 12.2 14 Sudeste 18 Sudeste 0 -- -- 75
2020-05-27 07:00:00 11.7 7 Sudeste 17 Sudeste -- -- -- 73
2020-05-27 06:00:00 12.5 14 Sudeste 21 Sudeste 0 -- -- 73
2020-05-27 05:00:00 12.3 9 Sur 18 Sur 0 -- -- 76
2020-05-27 04:00:00 10.7 4 Sudeste 18 Sudeste 0 -- -- 83
2020-05-27 03:00:00 9.3 2 Sudeste 11 Este 0 -- -- 94
2020-05-27 02:00:00 9.9 5 Sudeste 16 Este 0 -- -- 97
2020-05-27 01:00:00 10.4 4 Nordeste 13 Este 0 -- -- 95
2020-05-27 00:00:00 10.3 8 Nordeste 18 Este 0 -- -- 99
2020-05-26 23:00:00 11 0 Calma 9 Noroeste 0 -- -- 100
2020-05-26 22:00:00 11.4 3 Noroeste 14 Noroeste 0 -- -- 100
2020-05-26 21:00:00 11.9 5 Noroeste 15 Noroeste 0 -- -- 98
2020-05-26 20:00:00 13.4 9 Noroeste 21 Sudeste 0 -- -- 90
2020-05-26 19:00:00 14.9 9 Sudeste 24 Sudeste 0 -- -- 77
2020-05-26 18:00:00 15.7 7 Este 22 Sur 0 -- -- 74
2020-05-26 17:00:00 15.4 10 Sudeste 26 Sudeste 0 -- -- 75
2020-05-26 16:00:00 15.1 12 Este 30 Sudeste 0 -- -- 76
2020-05-26 15:00:00 14.9 9 Este 24 Este 0 -- -- 76
2020-05-26 14:00:00 14 7 Noroeste 14 Noroeste 0 -- -- 79
2020-05-26 13:00:00 12.6 8 Noroeste 15 Noroeste 0 -- -- 82
2020-05-26 12:00:00 11.8 7 Noroeste 13 Oeste 0 -- -- 84
2020-05-26 11:00:00 11 6 Noroeste 19 Este 0 -- -- 84
2020-05-26 10:00:00 9.4 2 Sudeste 8 Noroeste 0 -- -- 87
2020-05-26 09:00:00 9.3 2 Nordeste 19 Este 0 -- -- 87
2020-05-26 08:00:00 9.6 16 Este 26 Este 0 -- -- 86
2020-05-26 07:00:00 8.3 13 Sudeste 19 Este 0 -- -- 87
2020-05-26 06:00:00 8 9 Este 19 Sudeste 0 -- -- 88
2020-05-26 05:00:00 8.6 12 Sudeste 25 Sudeste 0 -- -- 86
2020-05-26 04:00:00 8.8 15 Sudeste 26 Este 0 -- -- 86
2020-05-26 03:00:00 8.7 15 Sudeste 24 Sudeste 0 -- -- 100
2020-05-26 02:00:00 9.2 9 Sudeste 17 Sudeste 0.2 -- -- 100
2020-05-26 01:00:00 7.3 0 Calma 8 Noroeste 0 -- -- 100
2020-05-26 00:00:00 8.4 3 Sur 16 Este 0 -- -- 100
2020-05-25 23:00:00 8.3 6 Este 13 Sudeste 0 -- -- 100
2020-05-25 22:00:00 9.2 3 Noroeste 11 Sudeste 0 -- -- 100
2020-05-25 21:00:00 9.5 5 Este 10 Nordeste 0 -- -- 100
2020-05-25 20:00:00 9.4 4 Noroeste 13 Noroeste 0 -- -- 100
2020-05-25 19:00:00 10 9 Noroeste 18 Sur 0 -- -- 100
2020-05-25 18:00:00 11.7 9 Sur 22 Sur 0 -- -- 95
2020-05-25 17:00:00 12 8 Sudeste 23 Este 0 -- -- 93
2020-05-25 16:00:00 13 17 Este 25 Este 0 -- -- 89
2020-05-25 15:00:00 12.9 10 Este 21 Este 0 -- -- 90
2020-05-25 14:00:00 14.7 5 Noroeste 13 Noroeste 0 -- -- 87
2020-05-25 13:00:00 13.3 5 Noroeste 16 Sur 0 -- -- 92
2020-05-25 12:00:00 13.4 7 Noroeste 11 Noroeste 0 -- -- 86
2020-05-25 11:00:00 13.8 6 Noroeste 9 Noroeste 0 -- -- 82
2020-05-25 10:00:00 14.1 3 Noroeste 6 Noroeste 0 -- -- 81
2020-05-25 09:00:00 13.4 0 Calma 6 Sudeste 0 -- -- 85
2020-05-25 08:00:00 11.7 5 Sudeste 9 Sur 0 -- -- 85
2020-05-25 07:00:00 11.6 6 Sudeste 9 Este 0 -- -- 83
2020-05-25 06:00:00 11.8 5 Sudeste 13 Este 0 -- -- 79
2020-05-25 05:00:00 11.8 8 Sudeste 11 Este 0 -- -- 80
2020-05-25 04:00:00 11.4 5 Este 13 Este 0 -- -- 82
2020-05-25 03:00:00 12.8 6 Este 11 Este 0 -- -- 82
2020-05-25 02:00:00 12.3 0 Calma 21 Sur 0 -- -- 87
2020-05-25 01:00:00 14.7 17 Sudeste 23 Sudeste 0 -- -- 78
2020-05-25 00:00:00 11.7 0 Calma 16 Sudeste 0 -- -- 90
2020-05-24 23:00:00 14.3 13 Sur 22 Sudeste 0 -- -- 80
2020-05-24 22:00:00 14.2 19 Sur 24 Sur 0 -- -- 79
2020-05-24 21:00:00 10.8 4 Oeste 9 Noroeste 0 -- -- 94
2020-05-24 20:00:00 13.4 4 Noroeste 12 Noroeste 0 -- -- 84
2020-05-24 19:00:00 14.6 5 Noroeste 13 Noroeste 0 -- -- 83
2020-05-24 18:00:00 14.9 5 Noroeste 13 Noroeste 0 -- -- 80
2020-05-24 17:00:00 14.9 7 Noroeste 13 Noroeste 0 -- -- 81
2020-05-24 16:00:00 14.3 9 Noroeste 18 Noroeste 0 -- -- 83
2020-05-24 15:00:00 13.5 6 Noroeste 14 Noroeste 0 -- -- 85
2020-05-24 14:00:00 12.5 6 Noroeste 11 Noroeste -- -- -- 89
2020-05-24 13:00:00 13.7 4 Norte 8 Noroeste 0 -- -- 76
2020-05-24 12:00:00 14.2 3 Noroeste 7 Noroeste 0 -- -- 73
2020-05-24 11:00:00 13.6 3 Norte 7 Noroeste 0 -- -- 55
2020-05-24 10:00:00 12.6 3 Nordeste 7 Sudeste 0 -- -- 70
2020-05-24 09:00:00 11.2 2 Sudeste 9 Oeste 0 -- -- 60
2020-05-24 08:00:00 8 7 Sudeste 20 Sudeste 0 -- -- 72
2020-05-24 07:00:00 10.1 7 Sur 20 Este 0 -- -- 55
2020-05-24 06:00:00 7.9 3 Oeste 22 Este 0 -- -- 62
2020-05-24 05:00:00 7.6 6 Sudeste 16 Sudeste 0 -- -- 43
2020-05-24 04:00:00 5.7 8 Este 21 Este 0 -- -- 77
2020-05-24 03:00:00 5.5 4 Sudeste 26 Este 0 -- -- 94
2020-05-24 02:00:00 5.1 10 Este 22 Este 0 -- -- 100
2020-05-24 01:00:00 5.2 14 Este 25 Este 0 -- -- 100
2020-05-24 00:00:00 5.6 5 Este 14 Este 0 -- -- 100
2020-05-23 23:00:00 6.1 4 Sudeste 10 Sur 0 -- -- 100
2020-05-23 22:00:00 6.5 0 Calma 7 Noroeste 0.2 -- -- 100
2020-05-23 21:00:00 6.7 3 Noroeste 10 Noroeste 0 -- -- 100
2020-05-23 20:00:00 6.6 4 Noroeste 8 Noroeste 0 -- -- 100
2020-05-23 19:00:00 6.8 5 Noroeste 10 Noroeste 0.2 -- -- 100
2020-05-23 18:00:00 7.1 7 Noroeste 11 Noroeste 0 -- -- 100
2020-05-23 17:00:00 7.9 7 Noroeste 11 Noroeste 0.2 -- -- 100
2020-05-23 16:00:00 8.9 4 Noroeste 13 Noroeste 0 -- -- 100
2020-05-23 15:00:00 9.5 4 Noroeste 18 Noroeste 0 -- -- 100
2020-05-23 14:00:00 8.8 6 Noroeste 11 Noroeste 0 -- -- 100
2020-05-23 13:00:00 8.1 7 Noroeste 15 Noroeste 0.2 -- -- 100
2020-05-23 12:00:00 8.7 3 Noroeste 8 Noroeste 0 -- -- 100
2020-05-23 11:00:00 8.4 5 Noroeste 11 Noroeste 0 -- -- 100
2020-05-23 10:00:00 8.4 5 Noroeste 13 Noroeste 0 -- -- 100
2020-05-23 09:00:00 8.5 5 Noroeste 14 Noroeste 0 -- -- 100
2020-05-23 08:00:00 8.2 5 Sur 15 Noroeste 0 -- -- 100
2020-05-23 07:00:00 8.3 4 Este 12 Noroeste 0 -- -- 99
2020-05-23 06:00:00 13 6 Sur 14 Sur 0 -- -- 72
2020-05-23 05:00:00 13.2 3 Sur 14 Sudeste 0 -- -- 68
2020-05-23 04:00:00 15 5 Sudeste 21 Norte 0 -- -- 55
2020-05-23 03:00:00 16 6 Oeste 15 Oeste 0 -- -- 56
2020-05-23 02:00:00 15.6 4 Sudeste 12 Sudeste 0 -- -- 56
2020-05-23 01:00:00 15 10 Sur 13 Sur 0 -- -- 72
2020-05-23 00:00:00 15.6 8 Sur 13 Sudeste 0 -- -- 72
2020-05-22 23:00:00 16.3 8 Sur 11 Sudeste 0 -- -- 70
2020-05-22 22:00:00 17 6 Sudeste 20 Este 0 -- -- 69
2020-05-22 21:00:00 19.1 8 Este 19 Este 0 -- -- 65
2020-05-22 20:00:00 20.2 6 Noroeste 14 Noroeste 0 -- -- 61
2020-05-22 19:00:00 21.4 9 Noroeste 18 Noroeste 0 -- -- 56
2020-05-22 18:00:00 21.5 7 Noroeste 18 Noroeste 0 -- -- 59
2020-05-22 17:00:00 21 8 Noroeste 18 Noroeste 0 -- -- 64
2020-05-22 16:00:00 20.2 8 Noroeste 19 Noroeste 0 -- -- 66
2020-05-22 15:00:00 19.9 9 Noroeste 15 Noroeste 0 -- -- 62
2020-05-22 14:00:00 18.9 7 Noroeste 18 Noroeste 0 -- -- 67
2020-05-22 13:00:00 19.4 9 Noroeste 28 Sur 0 -- -- 48
2020-05-22 12:00:00 19.5 8 Noroeste 22 Norte 0 -- -- 53
2020-05-22 11:00:00 19.2 4 Noroeste 9 Noroeste 0 -- -- 48
2020-05-22 10:00:00 19 3 Norte 13 Sudeste 0 -- -- 44
2020-05-22 09:00:00 15.7 7 Este 13 Este 0 -- -- 54
2020-05-22 08:00:00 15.4 10 Sudeste 17 Sudeste 0 -- -- 51
2020-05-22 07:00:00 13.5 13 Sur 17 Sur 0 -- -- 58
2020-05-22 06:00:00 13.8 9 Sur 14 Sur 0 -- -- 55
2020-05-22 05:00:00 15.3 2 Nordeste 11 Sur 0 -- -- 50
2020-05-22 04:00:00 14.4 9 Sudoeste 15 Sur 0 -- -- 50
2020-05-22 03:00:00 14.8 8 Sudoeste 14 Sur 0 -- -- 49
2020-05-22 02:00:00 16.1 7 Sudoeste 17 Oeste 0 -- -- 45
2020-05-22 01:00:00 15 8 Sudoeste 15 Sudoeste 0 -- -- 47
2020-05-22 00:00:00 14.8 11 Sur 13 Sur -- -- -- 50
2020-05-21 23:00:00 15.6 12 Sur 15 Sur 0 -- -- 45
2020-05-21 22:00:00 15.8 3 Sur 9 Oeste 0 -- -- 57
2020-05-21 21:00:00 18.9 6 Noroeste 10 Noroeste 0 -- -- 47
2020-05-21 20:00:00 19.6 8 Noroeste 18 Noroeste 0 -- -- 49
2020-05-21 19:00:00 20.2 9 Noroeste 21 Noroeste 0 -- -- 46
2020-05-21 18:00:00 19.7 11 Noroeste 19 Noroeste 0 -- -- 48
2020-05-21 17:00:00 19.9 10 Noroeste 17 Noroeste 0 -- -- 48
2020-05-21 16:00:00 19.4 10 Noroeste 21 Noroeste 0 -- -- 50
2020-05-21 15:00:00 19.2 10 Noroeste 16 Noroeste 0 -- -- 49
2020-05-21 14:00:00 18.5 8 Noroeste 15 Noroeste 0 -- -- 47
2020-05-21 13:00:00 17.9 6 Noroeste 13 Noroeste 0 -- -- 36
2020-05-21 12:00:00 17.9 6 Noroeste 10 Noroeste 0 -- -- 31
2020-05-21 11:00:00 17.2 5 Noroeste 9 Noroeste 0 -- -- 29
2020-05-21 10:00:00 15.8 4 Sudeste 10 Este 0 -- -- 37
2020-05-21 09:00:00 14.1 9 Este 21 Este 0 -- -- 42
2020-05-21 08:00:00 13.4 19 Este 25 Este 0 -- -- 43
2020-05-21 07:00:00 11.3 15 Este 23 Este 0 -- -- 40
2020-05-21 06:00:00 10.9 9 Este 25 Este 0 -- -- 35
2020-05-21 05:00:00 12.2 19 Este 27 Este 0 -- -- 30
2020-05-21 04:00:00 11.6 15 Sudeste 22 Este 0 -- -- 27
2020-05-21 03:00:00 10.7 12 Este 19 Este 0 -- -- 29
2020-05-21 02:00:00 10.8 13 Este 26 Este 0 -- -- 28
2020-05-21 01:00:00 12 17 Este 21 Este 0 -- -- 26
2020-05-21 00:00:00 11.8 9 Este 15 Este 0 -- -- 28
2020-05-20 23:00:00 11.5 9 Sudeste 13 Este 0 -- -- 62
2020-05-20 22:00:00 11.9 5 Sudeste 12 Oeste 0 -- -- 68
2020-05-20 21:00:00 15.6 9 Noroeste 19 Noroeste 0 -- -- 56
2020-05-20 20:00:00 17.2 10 Noroeste 26 Noroeste 0 -- -- 48
2020-05-20 19:00:00 17.4 14 Noroeste 28 Oeste 0 -- -- 36
2020-05-20 18:00:00 18 13 Noroeste 30 Oeste 0 -- -- 32
2020-05-20 17:00:00 18.1 14 Noroeste 24 Noroeste 0 -- -- 34
2020-05-20 16:00:00 18 14 Noroeste 22 Oeste 0 -- -- 31
2020-05-20 15:00:00 17.8 12 Noroeste 19 Noroeste 0 -- -- 36
2020-05-20 14:00:00 17 10 Noroeste 21 Noroeste 0 -- -- 36
2020-05-20 13:00:00 17 12 Noroeste 24 Sudeste 0 -- -- 27
2020-05-20 12:00:00 16.7 6 Este 22 Sudeste 0 -- -- 27
2020-05-20 11:00:00 15.6 10 Sudeste 21 Sudeste 0 -- -- 31
2020-05-20 10:00:00 14.6 13 Sudeste 24 Sudeste 0 -- -- 30
2020-05-20 09:00:00 12 12 Sudeste 21 Sur 0 -- -- 33
2020-05-20 08:00:00 11.4 15 Sudeste 25 Sudeste 0 -- -- 32
2020-05-20 07:00:00 10.2 14 Sudeste 23 Sudeste 0 -- -- 32
2020-05-20 06:00:00 10.4 14 Sudeste 20 Sudeste 0 -- -- 26
2020-05-20 05:00:00 9.9 16 Sudeste 23 Sudeste 0 -- -- 47
2020-05-20 04:00:00 11.6 18 Sudeste 24 Sudeste 0 -- -- 46
2020-05-20 03:00:00 12.2 18 Sudeste 26 Sudeste 0 -- -- 44
2020-05-20 02:00:00 12.2 17 Sur 22 Sur 0 -- -- 44
2020-05-20 01:00:00 12.1 16 Sur 21 Sur 0 -- -- 45
2020-05-20 00:00:00 11.3 7 Este 14 Este 0 -- -- 51
2020-05-19 23:00:00 10.1 4 Nordeste 14 Este 0 -- -- 53
2020-05-19 22:00:00 10.1 6 Este 10 Este 0 -- -- 59
2020-05-19 21:00:00 13.1 5 Noroeste 17 Noroeste 0 -- -- 73
2020-05-19 20:00:00 14.3 8 Noroeste 17 Noroeste 0 -- -- 64
2020-05-19 19:00:00 15.1 9 Noroeste 17 Oeste 0 -- -- 54
2020-05-19 18:00:00 14.5 8 Noroeste 19 Noroeste 0 -- -- 60
2020-05-19 17:00:00 15.1 11 Noroeste 18 Noroeste 0 -- -- 54
2020-05-19 16:00:00 15.2 12 Noroeste 19 Noroeste 0 -- -- 61
2020-05-19 15:00:00 15.1 8 Noroeste 19 Noroeste 0 -- -- 66
2020-05-19 14:00:00 14.5 8 Noroeste 14 Sur 0 -- -- 65
2020-05-19 13:00:00 15.1 5 Sudoeste 18 Sur 0 -- -- 45
2020-05-19 12:00:00 14.5 7 Sur 21 Sur 0 -- -- 48
2020-05-19 11:00:00 13.3 11 Sur 25 Sudeste 0 -- -- 41
2020-05-19 10:00:00 11.8 11 Sudeste 24 Sudeste 0 -- -- 50
2020-05-19 09:00:00 11 12 Sur 18 Sudeste 0 -- -- 52
2020-05-19 08:00:00 9.8 16 Sur 25 Sudeste -- -- -- 53
2020-05-19 07:00:00 8 13 Sudeste 21 Sur 0 -- -- 61
2020-05-19 06:00:00 8.9 14 Sudeste 24 Sur 0 -- -- 52
2020-05-19 05:00:00 9 16 Sur 26 Sur 0 -- -- 56
2020-05-19 04:00:00 9.2 15 Sur 27 Sudeste 0 -- -- 55
2020-05-19 03:00:00 9.1 16 Sur 38 Sur 0 -- -- 55
2020-05-19 02:00:00 9.9 20 Sur 28 Sur 0 -- -- 48
2020-05-19 01:00:00 7.5 5 Sudeste 21 Sudeste 0 -- -- 56
2020-05-19 00:00:00 7.4 4 Este 13 Este 0 -- -- 41
2020-05-18 23:00:00 7.3 5 Nordeste 15 Este 0 -- -- 66
2020-05-18 22:00:00 8.2 5 Nordeste 10 Nordeste 0 -- -- 68
2020-05-18 21:00:00 10.7 6 Noroeste 25 Noroeste 0 -- -- 81
2020-05-18 20:00:00 12.1 13 Noroeste 27 Noroeste 0 -- -- 78
2020-05-18 19:00:00 12.7 16 Noroeste 26 Noroeste 0 -- -- 68
2020-05-18 18:00:00 13.4 13 Noroeste 24 Noroeste 0 -- -- 62
2020-05-18 17:00:00 13.1 15 Noroeste 30 Noroeste 0 -- -- 61
2020-05-18 16:00:00 13.3 13 Noroeste 21 Noroeste 0 -- -- 57
2020-05-18 15:00:00 12.9 11 Noroeste 20 Noroeste -- -- -- 52
2020-05-18 14:00:00 12.2 12 Noroeste 22 Oeste 0 -- -- 62
2020-05-18 13:00:00 11.6 9 Noroeste 15 Noroeste 0 -- -- 56
2020-05-18 12:00:00 11.5 5 Noroeste 12 Noroeste 0 -- -- 54
2020-05-18 11:00:00 10.7 3 Noroeste 9 Norte 0 -- -- 43
2020-05-18 10:00:00 10.4 3 Norte 19 Este 0 -- -- 38
2020-05-18 09:00:00 9.8 10 Sudeste 29 Sudeste 0 -- -- 40
2020-05-18 08:00:00 8.4 12 Sudeste 23 Sudeste 0 -- -- 33
2020-05-18 07:00:00 7.4 16 Sudeste 22 Sudeste 0 -- -- 36
2020-05-18 06:00:00 7.5 17 Este 25 Sudeste 0 -- -- 38
2020-05-18 05:00:00 7.3 15 Este 19 Este 0 -- -- 42
2020-05-18 04:00:00 6.4 15 Este 19 Este 0 -- -- 50
2020-05-18 03:00:00 6.6 15 Este 22 Sudeste 0 -- -- 39
2020-05-18 02:00:00 8.5 12 Sudeste 20 Este 0 -- -- 13
2020-05-18 01:00:00 7.2 14 Este 17 Este 0 -- -- 23
2020-05-18 00:00:00 7.2 9 Este 13 Este 0 -- -- 18
2020-05-17 23:00:00 6.6 7 Este 15 Este 0 -- -- 30
2020-05-17 22:00:00 6.9 6 Este 12 Sudeste 0 -- -- 59
2020-05-17 21:00:00 8.2 6 Noroeste 12 Oeste 0 -- -- 87
2020-05-17 20:00:00 9.8 8 Noroeste 15 Noroeste 0 -- -- 70
2020-05-17 19:00:00 10.1 8 Noroeste 17 Noroeste 0 -- -- 66
2020-05-17 18:00:00 10.3 9 Noroeste 16 Noroeste 0 -- -- 71
2020-05-17 17:00:00 10 8 Noroeste 21 Noroeste 0 -- -- 75
2020-05-17 16:00:00 9.5 8 Noroeste 17 Noroeste 0 -- -- 78
2020-05-17 15:00:00 9.7 10 Noroeste 15 Noroeste 0 -- -- 77
2020-05-17 14:00:00 7.9 8 Noroeste 16 Noroeste -- -- -- 80
2020-05-17 13:00:00 7 8 Noroeste 20 Sur 0 -- -- 83
2020-05-17 12:00:00 6.5 5 Noroeste 19 Sudeste 0 -- -- 75
2020-05-17 11:00:00 6 6 Sudoeste 19 Sudeste 0 -- -- 78
2020-05-17 10:00:00 4.9 11 Sudeste 24 Sudeste 0 -- -- 79
2020-05-17 09:00:00 2.1 2 Norte 17 Sur 0 -- -- 93
2020-05-17 08:00:00 1.9 12 Sur 19 Sur 0 -- -- 95
2020-05-17 07:00:00 1.8 5 Sudoeste 15 Oeste 0 -- -- 99
2020-05-17 06:00:00 1.8 9 Oeste 24 Noroeste 0 -- -- 100
2020-05-17 05:00:00 1.7 8 Oeste 18 Oeste 0 -- -- 100
2020-05-17 04:00:00 1.4 3 Norte 14 Noroeste -- -- -- 100
2020-05-17 03:00:00 1.9 7 Oeste 22 Noroeste 0 -- -- 100
2020-05-17 02:00:00 2 7 Noroeste 18 Sudoeste 0 -- -- 100
2020-05-17 01:00:00 2 8 Noroeste 27 Noroeste 0 -- -- 100
2020-05-17 00:00:00 2.3 12 Noroeste 27 Noroeste 0 -- -- 100
2020-05-16 23:00:00 2.6 10 Noroeste 30 Noroeste 0 -- -- 100
2020-05-16 22:00:00 3 11 Noroeste 20 Noroeste 0 -- -- 100
2020-05-16 21:00:00 3.3 9 Noroeste 22 Noroeste 0 -- -- 100
2020-05-16 20:00:00 3.6 11 Noroeste 24 Oeste 0 -- -- 100
2020-05-16 19:00:00 3.5 14 Noroeste 28 Noroeste 0 -- -- 100
2020-05-16 18:00:00 3.7 8 Norte 23 Noroeste 0 -- -- 100
2020-05-16 17:00:00 3.7 9 Noroeste 21 Noroeste 0 -- -- 100
2020-05-16 16:00:00 3.7 9 Noroeste 18 Noroeste 0.2 -- -- 100
2020-05-16 15:00:00 3.5 6 Noroeste 20 Noroeste 0 -- -- 100
2020-05-16 14:00:00 3.4 5 Noroeste 15 Noroeste 0.4 -- -- 100
2020-05-16 13:00:00 3.1 5 Noroeste 16 Noroeste 0.2 -- -- 100
2020-05-16 12:00:00 3 7 Noroeste 18 Noroeste 0.2 -- -- 100
2020-05-16 11:00:00 2.7 8 Noroeste 22 Noroeste 0.2 -- -- 100
2020-05-16 10:00:00 2.5 10 Noroeste 30 Oeste 0.4 -- -- 100
2020-05-16 09:00:00 2.3 6 Noroeste 12 Noroeste 0.6 -- -- 100
2020-05-16 08:00:00 1.9 3 Noroeste 12 Oeste 1 -- -- 100
2020-05-16 07:00:00 1.7 4 Sudoeste 12 Sur 0.6 -- -- 100
2020-05-16 06:00:00 1.7 4 Sudoeste 13 Sudoeste 0.4 -- -- 100
2020-05-16 05:00:00 1.4 3 Noroeste 9 Sudoeste 0 -- -- 100
2020-05-16 04:00:00 1.3 3 Este 6 Este 0.2 -- -- 100
2020-05-16 03:00:00 1.1 3 Norte 12 Oeste 0 -- -- 100
2020-05-16 02:00:00 1 3 Sudoeste 8 Sudeste 0 -- -- 100
2020-05-16 01:00:00 0.8 2 Noroeste 21 Noroeste 0.2 -- -- 100
2020-05-16 00:00:00 1 4 Norte 14 Noroeste 0 -- -- 100
2020-05-15 23:00:00 1.5 5 Norte 22 Noroeste 0.6 -- -- 100
2020-05-15 22:00:00 2.2 6 Noroeste 21 Noroeste 0.2 -- -- 100
2020-05-15 21:00:00 2.4 8 Noroeste 21 Noroeste 0.4 -- -- 100
2020-05-15 20:00:00 2.8 9 Noroeste 22 Norte 0.6 -- -- 100
2020-05-15 19:00:00 3.1 8 Norte 24 Noroeste 0.4 -- -- 100
2020-05-15 18:00:00 3.1 11 Norte 24 Noroeste 0.6 -- -- 100
2020-05-15 17:00:00 3.4 8 Noroeste 23 Noroeste 0.4 -- -- 100
2020-05-15 16:00:00 3.5 7 Noroeste 16 Oeste 0.2 -- -- 100
2020-05-15 15:00:00 3.5 8 Noroeste 21 Noroeste 0.6 -- -- 100
2020-05-15 14:00:00 3.7 9 Noroeste 21 Noroeste 1 -- -- 100
2020-05-15 13:00:00 3.8 7 Noroeste 25 Noroeste 1.2 -- -- 100
2020-05-15 12:00:00 3.9 6 Noroeste 18 Noroeste 1 -- -- 100
2020-05-15 11:00:00 3.6 8 Noroeste 18 Noroeste 0.6 -- -- 100
2020-05-15 10:00:00 3.6 7 Noroeste 20 Noroeste 0.8 -- -- 100
2020-05-15 09:00:00 3.4 12 Noroeste 23 Oeste 0.6 -- -- 100
2020-05-15 08:00:00 3.3 7 Noroeste 15 Oeste 0.2 -- -- 100
2020-05-15 07:00:00 3 5 Noroeste 15 Norte 0.4 -- -- 100
2020-05-15 06:00:00 3 7 Noroeste 15 Noroeste 0 -- -- 100
2020-05-15 05:00:00 3.1 6 Noroeste 15 Noroeste 0 -- -- 100
2020-05-15 04:00:00 3.1 8 Noroeste 13 Noroeste 0 -- -- 100
2020-05-15 03:00:00 3.1 7 Noroeste 15 Noroeste 0 -- -- 100
2020-05-15 02:00:00 3.1 6 Noroeste 13 Norte 0.2 -- -- 100
2020-05-15 01:00:00 3.3 6 Noroeste 10 Noroeste 0.4 -- -- 100
2020-05-15 00:00:00 3.3 6 Noroeste 17 Oeste 0.6 -- -- 100
2020-05-14 23:00:00 3.5 6 Noroeste 17 Noroeste 0.8 -- -- 100
2020-05-14 22:00:00 3.9 8 Noroeste 16 Noroeste 1 -- -- 100
2020-05-14 21:00:00 4.3 7 Noroeste 15 Noroeste 0.6 -- -- 100
2020-05-14 20:00:00 4.2 8 Noroeste 22 Noroeste 0.8 -- -- 100
2020-05-14 19:00:00 4.8 8 Noroeste 17 Noroeste 0.8 -- -- 100
2020-05-14 18:00:00 5.1 7 Noroeste 14 Noroeste 0.4 -- -- 100
2020-05-14 17:00:00 5.3 6 Noroeste 17 Noroeste 0.2 -- -- 100
2020-05-14 16:00:00 5.4 10 Noroeste 18 Noroeste 1.4 -- -- 100
2020-05-14 15:00:00 5.3 6 Noroeste 13 Oeste 2 -- -- 100
2020-05-14 14:00:00 5.6 6 Noroeste 9 Noroeste 0.4 -- -- 100
2020-05-14 13:00:00 5.5 5 Noroeste 9 Noroeste 0.2 -- -- 100
2020-05-14 12:00:00 5.5 5 Noroeste 9 Noroeste 0 -- -- 100
2020-05-14 11:00:00 5.4 5 Noroeste 9 Noroeste 0 -- -- 100
2020-05-14 10:00:00 5.6 5 Noroeste 10 Noroeste 0 -- -- 100
2020-05-14 09:00:00 5.1 3 Noroeste 19 Sudeste 0 -- -- 100
2020-05-14 08:00:00 6.5 12 Sudeste 21 Sudeste 0 -- -- 89
2020-05-14 07:00:00 5 5 Sur 27 Sudeste 0 -- -- 98
2020-05-14 06:00:00 3.9 2 Sudeste 21 Este 0 -- -- 100
2020-05-14 05:00:00 4.8 17 Este 23 Este 0 -- -- 99
2020-05-14 04:00:00 5.5 2 Norte 20 Este 0 -- -- 94
2020-05-14 03:00:00 7.1 12 Sudeste 26 Sudeste 0 -- -- 79
2020-05-14 02:00:00 5.7 16 Este 24 Este 0 -- -- 92
2020-05-14 01:00:00 6.1 12 Este 22 Sudeste 0 -- -- 89
2020-05-14 00:00:00 6.7 11 Sudeste 25 Sudeste 0 -- -- 87
2020-05-13 23:00:00 6.7 19 Sudeste 24 Sudeste 2.4 -- -- 87
2020-05-13 22:00:00 6.6 10 Sudeste 21 Sudeste 3.8 -- -- 88
2020-05-13 21:00:00 7.2 7 Este 14 Este 0 -- -- 95
2020-05-13 20:00:00 7.1 5 Noroeste 12 Noroeste 0.4 -- -- 100
2020-05-13 19:00:00 7.1 8 Noroeste 14 Sudeste 0 -- -- 100
2020-05-13 18:00:00 7.3 13 Sudeste 18 Sudeste 0 -- -- 94
2020-05-13 17:00:00 7.6 9 Noroeste 18 Noroeste 0 -- -- 99
2020-05-13 16:00:00 7.4 8 Noroeste 18 Noroeste 0 -- -- 100
2020-05-13 15:00:00 7.8 7 Norte 16 Noroeste 0 -- -- 83
2020-05-13 14:00:00 7.7 5 Norte 15 Noroeste 0 -- -- 84
2020-05-13 13:00:00 6.4 9 Noroeste 25 Noroeste 0 -- -- 92
2020-05-13 12:00:00 5 11 Noroeste 22 Noroeste 0 -- -- 100
2020-05-13 11:00:00 4.5 10 Noroeste 21 Noroeste 0 -- -- 100
2020-05-13 10:00:00 4.2 10 Noroeste 22 Noroeste 1 -- -- 100
2020-05-13 09:00:00 4.1 8 Noroeste 17 Oeste 0.6 -- -- 100
2020-05-13 08:00:00 4.3 6 Noroeste 17 Noroeste 0.4 -- -- 97
2020-05-13 07:00:00 4.3 9 Oeste 19 Sur 0 -- -- 96
2020-05-13 06:00:00 3.9 4 Noroeste 10 Oeste 0 -- -- 94
2020-05-13 05:00:00 3.8 2 Noroeste 10 Sudoeste 0.4 -- -- 97
2020-05-13 04:00:00 4.1 7 Noroeste 13 Norte 0.6 -- -- 92
2020-05-13 03:00:00 3.8 3 Noroeste 10 Oeste 0.4 -- -- 99
2020-05-13 02:00:00 4 2 Norte 14 Oeste 1.2 -- -- 100
2020-05-13 01:00:00 4.4 3 Noroeste 6 Norte 1 -- -- 100
2020-05-13 00:00:00 4.5 5 Noroeste 19 Sudeste 1.6 -- -- 100
2020-05-12 23:00:00 5.3 10 Sudeste 23 Sudeste 1.6 -- -- 89
2020-05-12 22:00:00 5.6 3 Sudoeste 8 Este 1.2 -- -- 96
2020-05-12 21:00:00 5.8 0 Calma 22 Sudeste 1 -- -- 94
2020-05-12 20:00:00 6.4 15 Sudeste 26 Sudeste 2.8 -- -- 86
2020-05-12 19:00:00 6.6 6 Este 19 Este 0.2 -- -- 100
2020-05-12 18:00:00 6.9 11 Este 29 Sudeste 0.4 -- -- 100
2020-05-12 17:00:00 7 8 Este 15 Sudeste 0.2 -- -- 100
2020-05-12 16:00:00 7.5 4 Noroeste 8 Noroeste 0 -- -- 100
2020-05-12 15:00:00 7.7 4 Noroeste 9 Noroeste 0 -- -- 100
2020-05-12 14:00:00 8.4 6 Noroeste 15 Sudeste 0 -- -- 98
2020-05-12 13:00:00 8.9 5 Noroeste 26 Sudeste 0 -- -- 94
2020-05-12 12:00:00 8.6 11 Sudeste 26 Este 0 -- -- 87
2020-05-12 11:00:00 7.5 4 Noroeste 9 Oeste 0 -- -- 94
2020-05-12 10:00:00 6.8 3 Norte 31 Sur 0 -- -- 95
2020-05-12 09:00:00 7 15 Sur 33 Sur 0 -- -- 86
2020-05-12 08:00:00 6.9 13 Sur 36 Sudeste 0 -- -- 86
2020-05-12 07:00:00 4.6 2 Norte 13 Norte 0 -- -- 100
2020-05-12 06:00:00 4.7 3 Nordeste 10 Oeste 0 -- -- 100
2020-05-12 05:00:00 5.3 3 Este 16 Noroeste 0 -- -- 100
2020-05-12 04:00:00 6.5 4 Este 16 Sur 0 -- -- 91
2020-05-12 03:00:00 5.6 3 Noroeste 18 Noroeste 0 -- -- 96
2020-05-12 02:00:00 6.4 4 Nordeste 14 Sudoeste 0 -- -- 92
2020-05-12 01:00:00 5.6 0 Calma 8 Nordeste 0 -- -- 100
2020-05-12 00:00:00 6.1 5 Noroeste 9 Norte 0.2 -- -- 96
2020-05-11 23:00:00 6.3 3 Sudeste 7 Sudeste 1.8 -- -- 100
2020-05-11 22:00:00 6.3 3 Norte 16 Noroeste 1.4 -- -- 100
2020-05-11 21:00:00 7.1 6 Noroeste 15 Noroeste 0 -- -- 100
2020-05-11 20:00:00 7.7 6 Noroeste 18 Noroeste 0 -- -- 98
2020-05-11 19:00:00 9.9 7 Noroeste 32 Norte 0 -- -- 73
2020-05-11 18:00:00 10.6 11 Noroeste 33 Noroeste 0 -- -- 63
2020-05-11 17:00:00 10 10 Noroeste 32 Noroeste 0 -- -- 67
2020-05-11 16:00:00 11.1 16 Noroeste 48 Norte 0 -- -- 57
2020-05-11 15:00:00 10.1 22 Norte 56 Noroeste 0 -- -- 61
2020-05-11 14:00:00 9.3 24 Norte 45 Noroeste 0 -- -- 69
2020-05-11 13:00:00 7.9 21 Norte 45 Norte 0 -- -- 76
2020-05-11 12:00:00 7 15 Norte 51 Noroeste 0 -- -- 80
2020-05-11 11:00:00 5.7 19 Norte 43 Noroeste 0 -- -- 86
2020-05-11 10:00:00 5.8 14 Noroeste 41 Noroeste 0 -- -- 89
2020-05-11 09:00:00 5.7 12 Norte 39 Norte 0 -- -- 93
2020-05-11 08:00:00 5.3 10 Oeste 26 Noroeste 0 -- -- 97
2020-05-11 07:00:00 5.6 10 Oeste 26 Oeste 0 -- -- 98
2020-05-11 06:00:00 5.2 10 Noroeste 27 Noroeste 0.2 -- -- 100
2020-05-11 05:00:00 5.1 10 Noroeste 27 Noroeste 0 -- -- 100
2020-05-11 04:00:00 4.6 4 Norte 15 Norte 0 -- -- 100
2020-05-11 03:00:00 4.5 4 Noroeste 21 Oeste 0 -- -- 100
2020-05-11 02:00:00 4.8 10 Noroeste 19 Norte 0 -- -- 100
2020-05-11 01:00:00 4.6 13 Noroeste 26 Noroeste 0 -- -- 100
2020-05-11 00:00:00 4.8 17 Noroeste 28 Noroeste 0 -- -- 100
2020-05-10 23:00:00 4.9 15 Noroeste 29 Noroeste 0.4 -- -- 100
2020-05-10 22:00:00 5.3 13 Noroeste 28 Noroeste 0.8 -- -- 100
2020-05-10 21:00:00 5 14 Noroeste 31 Noroeste -- -- -- 100
2020-05-10 20:00:00 5.3 10 Noroeste 29 Noroeste 0.6 -- -- 100
2020-05-10 19:00:00 4.9 15 Noroeste 31 Noroeste 0.8 -- -- 100
2020-05-10 18:00:00 5.2 17 Noroeste 35 Norte 1.8 -- -- 100
2020-05-10 17:00:00 5.8 17 Noroeste 38 Noroeste 0 -- -- 99
2020-05-10 16:00:00 8.7 12 Noroeste 32 Norte 0 -- -- 73
2020-05-10 15:00:00 8.4 14 Norte 32 Norte 0 -- -- 70
2020-05-10 14:00:00 7.2 12 Noroeste 25 Norte 0 -- -- 80
2020-05-10 13:00:00 7.1 11 Noroeste 24 Norte 0 -- -- 76
2020-05-10 12:00:00 7.2 11 Oeste 26 Sur 0 -- -- 80
2020-05-10 11:00:00 6.4 8 Noroeste 24 Norte 0 -- -- 82
2020-05-10 10:00:00 7.1 13 Norte 27 Norte 0 -- -- 74
2020-05-10 09:00:00 5.7 9 Este 22 Sudeste 0 -- -- 89
2020-05-10 08:00:00 5.4 9 Noroeste 35 Sur 0.2 -- -- 89
2020-05-10 07:00:00 5.6 26 Sur 39 Sur 0.6 -- -- 82
2020-05-10 06:00:00 5.6 13 Sur 33 Sur 3 -- -- 83
2020-05-10 05:00:00 7.1 4 Este 13 Sudeste 0 -- -- 93
2020-05-10 04:00:00 7.3 5 Este 15 Este 0 -- -- 95
2020-05-10 03:00:00 6.9 5 Sudeste 8 Sudeste 0 -- -- 94
2020-05-10 02:00:00 8.1 5 Noroeste 15 Norte 0 -- -- 94
2020-05-10 01:00:00 9.1 4 Nordeste 10 Oeste 0.8 -- -- 87
2020-05-10 00:00:00 9.7 4 Norte 24 Sur 0 -- -- 91
2020-05-09 23:00:00 10.9 12 Sur 23 Sur 0 -- -- 75
2020-05-09 22:00:00 10.8 6 Sudeste 13 Sudeste -- -- -- 77
2020-05-09 21:00:00 10.8 2 Nordeste 40 Sur 0 -- -- 83
2020-05-09 20:00:00 10.8 19 Sudeste 33 Sudeste 3.6 -- -- 70
2020-05-09 19:00:00 13.6 18 Sudeste 32 Sur 0 -- -- 54
2020-05-09 18:00:00 13.9 15 Sur 42 Sur 0 -- -- 55
2020-05-09 17:00:00 14.4 14 Sur 40 Sur 0 -- -- 56
2020-05-09 16:00:00 14.1 9 Sur 28 Sudoeste 0 -- -- 60
2020-05-09 15:00:00 14.3 6 Noroeste 33 Sudoeste 0 -- -- 59
2020-05-09 14:00:00 14.4 7 Noroeste 31 Sudeste 0 -- -- 59
2020-05-09 13:00:00 13.6 9 Sur 24 Oeste 0 -- -- 60
2020-05-09 12:00:00 13.4 7 Sudeste 25 Sur 0 -- -- 66
2020-05-09 11:00:00 12.4 7 Sudeste 33 Sur 0 -- -- 75
2020-05-09 10:00:00 11.9 13 Nordeste 31 Este 0 -- -- 79
2020-05-09 09:00:00 11 16 Este 35 Este 0 -- -- 83
2020-05-09 08:00:00 11.2 15 Sudeste 29 Sudeste 0 -- -- 77
2020-05-09 07:00:00 11.8 18 Sudeste 29 Sudeste 0 -- -- 73
2020-05-09 06:00:00 11.4 8 Oeste 37 Sur 0 -- -- 74
2020-05-09 05:00:00 12.7 23 Sudeste 39 Sur 0 -- -- 65
2020-05-09 04:00:00 10.5 23 Sudeste 34 Sudeste 1.4 -- -- 74
2020-05-09 03:00:00 10.1 19 Sudeste 32 Sur 1.6 -- -- 81
2020-05-09 02:00:00 12.1 15 Sudeste 25 Sudeste 0 -- -- 73
2020-05-09 01:00:00 13 17 Sudeste 26 Este 0 -- -- 69
2020-05-09 00:00:00 12.4 17 Este 28 Este 0 -- -- 72
2020-05-08 23:00:00 12.5 7 Sur 47 Sudeste 0.8 -- -- 71
2020-05-08 22:00:00 11 5 Este 9 Sur 3.2 -- -- 91
2020-05-08 21:00:00 13.7 11 Este 25 Sudeste 0 -- -- 81
2020-05-08 20:00:00 13.7 16 Sudeste 23 Sudeste 0 -- -- 56
2020-05-08 19:00:00 13.9 9 Sudeste 17 Sudeste 0 -- -- 77
2020-05-08 18:00:00 14 9 Este 17 Sudeste 0 -- -- 84
2020-05-08 17:00:00 15.1 7 Oeste 15 Sur 0 -- -- 79
2020-05-08 16:00:00 16.2 8 Noroeste 22 Sur 0 -- -- 62
2020-05-08 15:00:00 15.8 5 Nordeste 19 Sudeste 0 -- -- 62
2020-05-08 14:00:00 13.5 11 Este 37 Sudeste 0 -- -- 70
2020-05-08 13:00:00 12.6 28 Sudeste 40 Sudeste 0 -- -- 70
2020-05-08 12:00:00 10.6 27 Sudeste 34 Sudeste 0 -- -- 81
2020-05-08 11:00:00 10.9 21 Sudeste 97 Sudeste 1 -- -- 74
2020-05-08 10:00:00 10.8 22 Sudeste 67 Sur 0.2 -- -- 71
2020-05-08 09:00:00 9.8 10 Este 28 Sur 0.2 -- -- 81
2020-05-08 08:00:00 11 0 Calma 48 Sur -- -- -- 72
2020-05-08 07:00:00 11.2 28 Sur 60 Sur 0 -- -- 67
2020-05-08 06:00:00 12.5 17 Sudeste 44 Sudeste 0 -- -- 61
2020-05-08 05:00:00 13 32 Sur 41 Sur 0 -- -- 62
2020-05-08 04:00:00 12.8 32 Sudeste 40 Sudeste 0 -- -- 67
2020-05-08 03:00:00 14.2 27 Sudeste 33 Sur 0 -- -- 60
2020-05-08 02:00:00 16.3 17 Sudeste 34 Sudeste 0 -- -- 48
2020-05-08 01:00:00 15.8 21 Sur 45 Sur 0 -- -- 54
2020-05-08 00:00:00 15.4 23 Sudeste 47 Sudeste 0 -- -- 59
2020-05-07 23:00:00 14.9 34 Sudeste 49 Sur 0 -- -- 66
2020-05-07 22:00:00 14.9 21 Sur 46 Sur 0 -- -- 72
2020-05-07 21:00:00 16 8 Nordeste 32 Sur 0 -- -- 67
2020-05-07 20:00:00 17.2 10 Este 41 Sudoeste 0 -- -- 57
2020-05-07 19:00:00 17.1 7 Norte 30 Este 0 -- -- 59
2020-05-07 18:00:00 17.8 8 Nordeste 32 Este 0 -- -- 56
2020-05-07 17:00:00 19 8 Noroeste 25 Sudoeste 0 -- -- 50
2020-05-07 16:00:00 18.6 10 Oeste 30 Oeste 0 -- -- 50
2020-05-07 15:00:00 17.6 9 Noroeste 27 Este 0 -- -- 50
2020-05-07 14:00:00 17.2 6 Sudoeste 28 Sudeste 0 -- -- 53
2020-05-07 13:00:00 16.4 10 Norte 33 Sudeste 0 -- -- 58
2020-05-07 12:00:00 15 13 Sudeste 42 Sur 0 -- -- 66
2020-05-07 11:00:00 14.8 21 Sudeste 52 Sudeste 0 -- -- 62
2020-05-07 10:00:00 12.9 26 Sudeste 57 Sur 0 -- -- 62
2020-05-07 09:00:00 12.6 40 Sur 55 Sur 0 -- -- 62
2020-05-07 08:00:00 11.6 33 Sudeste 43 Sudeste 0 -- -- 55
2020-05-07 07:00:00 12.3 23 Sudeste 40 Sudeste 0 -- -- 51
2020-05-07 06:00:00 12 24 Sudeste 40 Sudeste 0 -- -- 53
2020-05-07 05:00:00 11.5 30 Sudeste 39 Sudeste 0 -- -- 60
2020-05-07 04:00:00 11.8 28 Sudeste 37 Sudeste 0 -- -- 63
2020-05-07 03:00:00 11.3 26 Sudeste 32 Sudeste 0 -- -- 68
2020-05-07 02:00:00 11.1 21 Sudeste 26 Sudeste 0 -- -- 68
2020-05-07 01:00:00 11.4 16 Sudeste 21 Sudeste 0 -- -- 70
2020-05-07 00:00:00 10.6 14 Sudeste 18 Sudeste 0 -- -- 81
2020-05-06 23:00:00 10.2 12 Sudeste 16 Sudeste 0 -- -- 80
2020-05-06 22:00:00 10.4 8 Este 13 Este 0 -- -- 69
2020-05-06 21:00:00 13.3 5 Noroeste 10 Noroeste -- -- -- 62
2020-05-06 20:00:00 15 6 Noroeste 16 Noroeste 0 -- -- 57
2020-05-06 19:00:00 15.4 7 Noroeste 25 Norte 0 -- -- 52
2020-05-06 18:00:00 15.5 9 Noroeste 18 Noroeste 0 -- -- 56
2020-05-06 17:00:00 15.5 11 Noroeste 21 Norte 0 -- -- 57
2020-05-06 16:00:00 14.3 6 Noroeste 15 Noroeste 0 -- -- 59
2020-05-06 15:00:00 14.2 3 Sur 17 Oeste 0 -- -- 58
2020-05-06 14:00:00 13.4 7 Noroeste 22 Noroeste -- -- -- 60
2020-05-06 13:00:00 13.5 11 Noroeste 18 Norte 0 -- -- 56
2020-05-06 12:00:00 11.8 5 Noroeste 9 Oeste 0 -- -- 56
2020-05-06 11:00:00 10.7 4 Noroeste 10 Noroeste 0 -- -- 58
2020-05-06 10:00:00 11.6 0 Calma 10 Nordeste 0 -- -- 55
2020-05-06 09:00:00 7.2 9 Nordeste 12 Sudeste 0 -- -- 68
2020-05-06 08:00:00 7.6 10 Sudeste 13 Sudeste 0 -- -- 65
2020-05-06 07:00:00 6.9 9 Sudeste 13 Sur 0 -- -- 67
2020-05-06 06:00:00 6.8 8 Sur 14 Sudeste 0 -- -- 66
2020-05-06 05:00:00 7.2 9 Sudeste 14 Sudeste 0 -- -- 61
2020-05-06 04:00:00 7.6 7 Sudeste 12 Este 0 -- -- 57
2020-05-06 03:00:00 7.8 5 Este 10 Este 0 -- -- 57
2020-05-06 02:00:00 7.7 6 Sudeste 11 Este 0 -- -- 60
2020-05-06 01:00:00 8.5 4 Sudeste 10 Este -- -- -- 58
2020-05-06 00:00:00 9 5 Este 13 Sudoeste 0 -- -- 53
2020-05-05 23:00:00 9.3 8 Sur 14 Sudeste 0 -- -- 59
2020-05-05 22:00:00 10.2 9 Sudeste 20 Este 0 -- -- 55
2020-05-05 21:00:00 13.3 4 Oeste 20 Noroeste 0 -- -- 40
2020-05-05 20:00:00 14.4 9 Norte 29 Noroeste 0 -- -- 36
2020-05-05 19:00:00 14.5 15 Norte 41 Noroeste 0 -- -- 28
2020-05-05 18:00:00 14.6 15 Norte 39 Norte 0 -- -- 26
2020-05-05 17:00:00 16.2 8 Noroeste 32 Norte 0 -- -- 26
2020-05-05 16:00:00 14.8 13 Noroeste 36 Norte 0 -- -- 29
2020-05-05 15:00:00 13.8 11 Norte 37 Noroeste 0 -- -- 30
2020-05-05 14:00:00 13.5 12 Noroeste 36 Noroeste 0 -- -- 34
2020-05-05 13:00:00 12.2 15 Norte 33 Noroeste 0 -- -- 32
2020-05-05 12:00:00 12 12 Noroeste 27 Sudeste 0 -- -- 30
2020-05-05 11:00:00 11.1 7 Noroeste 16 Noroeste 0 -- -- 47
2020-05-05 10:00:00 10.1 8 Sudeste 21 Sudeste 0 -- -- 50
2020-05-05 09:00:00 8.7 12 Sudeste 25 Este 0 -- -- 50
2020-05-05 08:00:00 8.4 8 Este 28 Sudeste 0 -- -- 51
2020-05-05 07:00:00 8.6 15 Sudeste 31 Este 0 -- -- 50
2020-05-05 06:00:00 8.7 14 Este 51 Sudeste 0 -- -- 53
2020-05-05 05:00:00 8.9 13 Este 42 Sur 0 -- -- 61
2020-05-05 04:00:00 9.7 10 Este 30 Sudeste 0 -- -- 57
2020-05-05 03:00:00 9.8 9 Este 46 Sur 0 -- -- 76
2020-05-05 02:00:00 10.2 8 Este 39 Sur 0 -- -- 72
2020-05-05 01:00:00 11.2 12 Nordeste 43 Este 0 -- -- 65
2020-05-05 00:00:00 11.6 6 Este 45 Sur 0 -- -- 65
2020-05-04 23:00:00 12.7 19 Sudeste 55 Sudeste 0 -- -- 62
2020-05-04 22:00:00 14.8 12 Sudeste 63 Sudeste 0.2 -- -- 59
2020-05-04 21:00:00 17.8 12 Este 58 Sur 0 -- -- 56
2020-05-04 20:00:00 19.5 28 Sur 54 Sur 0.8 -- -- 46
2020-05-04 19:00:00 20.7 24 Sudeste 64 Noroeste 0 -- -- 37
2020-05-04 18:00:00 21.1 20 Oeste 72 Sudoeste 0 -- -- 34
2020-05-04 17:00:00 20.8 24 Sur 57 Sur 0 -- -- 36
2020-05-04 16:00:00 21.1 17 Sudoeste 40 Sur 0 -- -- 34
2020-05-04 15:00:00 19.8 21 Sur 58 Sur -- -- -- 40
2020-05-04 14:00:00 20.1 12 Norte 35 Este 0 -- -- 34
2020-05-04 13:00:00 20 11 Sur 36 Sudeste 0 -- -- 35
2020-05-04 12:00:00 20.7 17 Este 46 Este 0 -- -- 33
2020-05-04 11:00:00 20.1 16 Este 45 Sudeste 0 -- -- 32
2020-05-04 10:00:00 19.1 23 Sudeste 40 Este 0 -- -- 35
2020-05-04 09:00:00 18.7 15 Sudeste 24 Sudeste 0 -- -- 28
2020-05-04 08:00:00 17.8 16 Sudeste 25 Sur 0 -- -- 39
2020-05-04 07:00:00 18.4 6 Norte 28 Sudeste 0 -- -- 29
2020-05-04 06:00:00 17.5 13 Sudeste 43 Sur 0 -- -- 34
2020-05-04 05:00:00 17.8 28 Sudeste 54 Sur 0 -- -- 33
2020-05-04 04:00:00 17.4 28 Sudeste 55 Sur 0 -- -- 37
2020-05-04 03:00:00 16.8 35 Sudeste 64 Sur 0 -- -- 43
2020-05-04 02:00:00 16.5 35 Sudeste 52 Sudeste 0 -- -- 50
2020-05-04 01:00:00 16.6 28 Sudeste 47 Sur 0 -- -- 51
2020-05-04 00:00:00 16.8 19 Sudeste 43 Sur 0 -- -- 48
2020-05-03 23:00:00 17.2 17 Sur 32 Sudeste 0 -- -- 44
2020-05-03 22:00:00 16.9 16 Sudeste 27 Sudeste 0 -- -- 36
2020-05-03 21:00:00 15.8 7 Este 14 Sudeste 0 -- -- 39
2020-05-03 20:00:00 17.6 8 Noroeste 14 Noroeste 0 -- -- 66
2020-05-03 19:00:00 18.1 9 Noroeste 19 Noroeste 0 -- -- 63
2020-05-03 18:00:00 19.1 11 Noroeste 32 Noroeste 0 -- -- 55
2020-05-03 17:00:00 19.6 12 Noroeste 22 Noroeste 0 -- -- 46
2020-05-03 16:00:00 19 10 Noroeste 24 Noroeste 0 -- -- 52
2020-05-03 15:00:00 18.4 7 Noroeste 20 Noroeste 0 -- -- 54
2020-05-03 14:00:00 17.6 11 Noroeste 20 Noroeste 0 -- -- 50
2020-05-03 13:00:00 16.8 8 Noroeste 15 Norte 0 -- -- 42
2020-05-03 12:00:00 15.5 8 Noroeste 15 Noroeste 0 -- -- 59
2020-05-03 11:00:00 13.8 4 Norte 12 Norte 0 -- -- 53
2020-05-03 10:00:00 13 3 Norte 9 Sudeste 0 -- -- 44
2020-05-03 09:00:00 11.5 4 Nordeste 17 Sudoeste 0 -- -- 35
2020-05-03 08:00:00 10.5 3 Sudeste 26 Sudoeste 0 -- -- 53
2020-05-03 07:00:00 10.1 8 Oeste 21 Norte 0 -- -- 74
2020-05-03 06:00:00 10.6 9 Noroeste 35 Norte 0 -- -- 69
2020-05-03 05:00:00 10.6 6 Oeste 26 Oeste 0 -- -- 68
2020-05-03 04:00:00 11.1 12 Norte 35 Noroeste 0 -- -- 58
2020-05-03 03:00:00 10.5 9 Norte 22 Noroeste 0 -- -- 64
2020-05-03 02:00:00 10.5 10 Norte 17 Norte 0 -- -- 70
2020-05-03 01:00:00 9.9 4 Oeste 14 Oeste 0 -- -- 76
2020-05-03 00:00:00 9.9 4 Sudoeste 14 Sur 0 -- -- 80